Latest Weather Observations for Tamworth Airport

IDN60801

Issued at 7:32 pm EST Sunday 20 August 2017 (issued every 30 minutes, with the page automatically refreshed every 10 minutes)

About weather observations | Map of weather stations | Latest weather observations for NSW | Other Formats
Station Details ID: 055325 Name: TAMWORTH AIRPORT AWS Lat: -31.07 Lon: 150.84 Height: 394.9 m
Data from the previous 72 hours. | See also: Recent months at Tamworth Airport
Date/Time
EST
Temp
°C
App
Temp
°C
Dew
Point
°C
Rel
Hum
%
Delta-T
°C
Wind Press
QNH
hPa
Press
MSL
hPa
Rain since
9am
mm
Dir  Spd
km/h
Gust
km/h
Spd
kts
Gust
kts
20/07:30pm 8.0 4.8 -0.2 56 3.3 E 6 11 3 6 1020.5 1020.7 0.0
20/07:00pm 8.0 2.8 -0.2 56 3.3 SSW 17 19 9 10 1020.3 1020.5 0.0
20/06:30pm 8.2 3.6 -1.3 51 3.7 SW 13 15 7 8 1019.7 1019.9 0.0
20/06:00pm 10.7 6.8 -1.4 43 4.8 SW 9 9 5 5 1019.6 1019.8 0.0
20/05:30pm 12.7 8.7 -2.3 35 6.0 WSW 9 9 5 5 1019.7 1019.9 0.0
20/05:00pm 15.2 11.2 -2.2 30 7.2 SW 9 11 5 6 1019.7 1019.9 0.0
20/04:30pm 15.7 12.7 -1.8 30 7.3 SE 4 9 2 5 1019.6 1019.8 0.0
20/04:00pm 15.8 11.8 -2.2 29 7.5 SW 9 15 5 8 1019.7 1019.9 0.0
20/03:30pm 15.8 11.9 -1.7 30 7.3 S 9 17 5 9 1019.6 1019.8 0.0
20/03:00pm 16.4 13.0 -0.8 31 7.4 W 7 17 4 9 1020.0 1020.2 0.0
20/02:30pm 16.1 11.1 -1.0 31 7.3 WSW 15 20 8 11 1020.1 1020.3 0.0
20/02:00pm 15.8 11.9 -1.3 31 7.2 SW 9 17 5 9 1020.3 1020.5 0.0
20/01:30pm 16.1 11.6 -0.6 32 7.2 S 13 20 7 11 1020.6 1020.8 0.0
20/01:00pm 14.8 10.9 -1.3 33 6.7 SSW 9 15 5 8 1021.0 1021.1 0.0
20/12:30pm 13.5 10.0 -1.6 35 6.2 SSE 7 17 4 9 1021.5 1021.7 0.0
20/12:00pm 12.8 8.9 -1.5 37 5.8 SSW 9 17 5 9 1022.2 1022.4 0.0
20/11:30am 12.4 8.6 -1.1 39 5.6 S 9 15 5 8 1022.6 1022.8 0.0
20/11:00am 11.4 7.9 -1.4 41 5.2 S 7 19 4 10 1023.2 1023.4 0.0
20/10:30am 11.0 6.4 -1.4 42 5.0 S 13 22 7 12 1023.9 1024.1 0.0
20/10:00am 9.4 5.4 -2.2 44 4.5 SE 9 17 5 9 1024.0 1024.2 0.0
20/09:30am 8.8 5.2 -1.9 47 4.2 E 7 13 4 7 1024.1 1024.3 0.0
20/09:00am 6.7 3.2 -1.2 57 3.0 N 7 11 4 6 1024.3 1024.5 0.0
20/08:30am 5.0 1.7 -1.4 63 2.4 NNE 6 7 3 4 1024.2 1024.4 0.0
20/08:00am 2.2 -1.4 -2.1 73 1.5 NE 7 9 4 5 1024.1 1024.3 0.0
20/07:30am 0.3 -2.0 -2.6 81 1.0 CALM 0 0 0 0 1023.7 1023.9 0.0
20/07:00am -2.2 -5.8 -3.9 88 0.5 NNW 6 11 3 6 1023.5 1023.6 0.0
20/06:30am -3.3 -5.9 -5.3 86 0.5 CALM 0 2 0 1 1023.1 1023.3 0.0
20/06:00am -4.5 -8.4 -6.9 83 0.5 WSW 6 11 3 6 1022.7 1022.9 0.0
20/05:30am -3.1 -6.5 -5.3 85 0.6 ENE 4 9 2 5 1022.6 1022.8 0.0
20/05:00am -3.5 -6.7 -7.1 76 0.9 WSW 2 7 1 4 1022.2 1022.4 0.0
20/04:30am -1.9 -5.8 -4.7 81 0.8 SE 7 9 4 5 1022.0 1022.2 0.0
20/04:00am -1.5 -5.8 -4.7 79 1.0 ENE 9 17 5 9 1021.6 1021.8 0.0
20/03:30am -1.0 -3.5 -4.3 78 1.0 CALM 0 0 0 0 1021.5 1021.7 0.0
20/03:00am -0.8 -4.8 -5.4 71 1.4 ENE 7 13 4 7 1021.5 1021.7 0.0
20/02:30am 0.2 -2.7 -4.6 70 1.6 NNE 2 7 1 4 1021.6 1021.8 0.0
20/02:00am 0.9 -2.8 -4.1 69 1.7 NE 6 7 3 4 1021.7 1021.9 0.0
20/01:30am 0.0 -4.6 -4.4 72 1.5 NE 11 13 6 7 1021.8 1022.0 0.0
20/01:00am 0.3 -3.6 -4.7 69 1.7 NNE 7 7 4 4 1021.7 1021.9 0.0
20/12:30am 1.6 -0.8 -3.3 70 1.8 CALM 0 6 0 3 1021.5 1021.7 0.0
20/12:00am 0.1 -4.1 -4.3 72 1.5 NW 9 13 5 7 1021.4 1021.5 0.0
 
Date/Time
EST
Temp
°C
App
Temp
°C
Dew
Point
°C
Rel
Hum
%
Delta-T
°C
Wind Press
QNH
hPa
Press
MSL
hPa
Rain since
9am
mm
Dir  Spd
km/h
Gust
km/h
Spd
kts
Gust
kts
19/11:30pm 1.8 -2.0 -3.5 68 1.9 W 7 11 4 6 1021.5 1021.7 0.0
19/11:00pm 0.7 -3.6 -5.3 64 2.0 WSW 9 9 5 5 1021.5 1021.7 0.0
19/10:30pm 4.3 0.1 -4.2 54 3.0 SSW 9 9 5 5 1021.7 1021.9 0.0
19/10:00pm 3.5 -0.1 -3.5 60 2.4 ENE 6 7 3 4 1021.7 1021.9 0.0
19/09:30pm 4.8 0.6 -3.7 54 3.0 SW 9 11 5 6 1021.5 1021.7 0.0
19/09:00pm 4.7 0.1 -4.0 53 3.0 SW 11 13 6 7 1021.2 1021.3 0.0
19/08:30pm 5.8 0.8 -4.1 49 3.5 SW 13 17 7 9 1020.8 1020.9 0.0
19/08:00pm 6.8 0.7 -3.7 47 3.8 WSW 19 24 10 13 1020.4 1020.6 0.0
19/07:30pm 5.9 0.2 -3.4 51 3.4 SW 17 20 9 11 1020.3 1020.5 0.0
19/07:00pm 6.1 0.3 -4.6 46 3.8 WSW 17 19 9 10 1019.9 1020.1 0.0
19/06:30pm 6.5 0.7 -4.9 44 4.0 WSW 17 19 9 10 1019.9 1020.1 0.0
19/06:00pm 7.4 1.5 -5.3 40 4.5 WSW 17 20 9 11 1019.4 1019.6 0.0
19/05:30pm 10.1 3.8 -5.8 32 5.7 SW 19 26 10 14 1018.9 1019.0 0.0
19/05:00pm 11.8 5.3 -6.1 28 6.5 SW 20 26 11 14 1018.5 1018.6 0.0
19/04:30pm 12.9 5.6 -6.6 25 7.1 SW 24 33 13 18 1018.0 1018.2 0.0
19/04:00pm 13.7 5.5 -7.6 22 7.7 SW 28 39 15 21 1017.8 1018.0 0.0
19/03:30pm 14.1 6.1 -5.6 25 7.5 SW 28 39 15 21 1017.3 1017.5 0.0
19/03:00pm 13.3 5.8 -4.8 28 6.9 WSW 26 37 14 20 1017.4 1017.6 0.0
19/02:30pm 12.5 5.7 -5.0 29 6.6 W 22 39 12 21 1017.4 1017.6 0.0
19/02:00pm 13.9 7.2 -3.8 29 6.9 WSW 22 32 12 17 1017.5 1017.7 0.0
19/01:30pm 14.0 5.8 -3.7 29 7.0 WSW 30 41 16 22 1017.4 1017.6 0.0
19/01:19pm 13.1 5.4 -3.2 32 6.4 WSW 28 46 15 25 1017.6 1017.8 0.0
19/01:00pm 13.7 5.9 -3.5 30 6.8 WSW 28 43 15 23 1017.7 1017.9 0.0
19/12:30pm 13.4 6.5 -2.5 33 6.4 WSW 24 35 13 19 1018.2 1018.3 0.0
19/12:00pm 12.4 4.8 -2.2 36 5.8 WSW 28 39 15 21 1018.5 1018.6 0.0
19/11:30am 11.5 5.7 -1.3 41 5.2 W 19 30 10 16 1018.9 1019.0 0.0
19/11:00am 11.2 4.6 -0.3 45 4.7 WSW 24 37 13 20 1019.1 1019.2 0.0
19/10:30am 10.4 5.1 -0.4 47 4.4 W 17 26 9 14 1019.5 1019.7 0.0
19/10:00am 9.2 4.3 -0.7 50 4.0 W 15 24 8 13 1019.8 1020.0 0.0
19/09:30am 9.3 4.0 -0.6 50 4.0 WSW 17 26 9 14 1019.9 1020.1 0.0
19/09:00am 8.5 4.0 0.0 55 3.4 W 13 24 7 13 1019.9 1020.1 0.0
19/08:30am 7.7 2.9 0.0 58 3.1 W 15 20 8 11 1019.8 1020.0 0.0
19/08:00am 6.8 2.8 0.3 63 2.6 NW 11 13 6 7 1019.5 1019.7 0.0
19/07:30am 5.1 0.7 0.3 71 1.9 NE 13 19 7 10 1019.3 1019.5 0.0
19/07:00am 4.0 0.2 -0.6 72 1.7 WNW 9 13 5 7 1018.8 1018.9 0.0
19/06:30am 4.2 -0.1 -1.4 67 2.1 W 11 19 6 10 1018.5 1018.6 0.0
19/06:00am 5.2 0.6 -1.0 64 2.4 W 13 20 7 11 1018.3 1018.4 0.0
19/05:30am 6.3 1.7 -0.7 61 2.7 W 13 22 7 12 1018.0 1018.2 0.0
19/05:00am 6.5 2.7 -0.5 61 2.7 NE 9 19 5 10 1018.0 1018.2 0.0
19/04:30am 5.5 0.7 0.1 68 2.1 N 15 20 8 11 1017.5 1017.7 0.0
19/04:00am 4.2 -1.5 -0.8 70 1.9 N 19 22 10 12 1017.3 1017.5 0.0
19/03:30am 4.1 -0.5 -1.3 68 2.0 NNE 13 19 7 10 1017.3 1017.5 0.0
19/03:00am 4.4 0.5 -1.4 66 2.2 N 9 13 5 7 1017.3 1017.5 0.0
19/02:30am 4.4 0.0 -2.2 62 2.4 NW 11 15 6 8 1017.5 1017.7 0.0
19/02:00am 6.5 1.5 -1.4 57 3.0 WNW 15 32 8 17 1017.5 1017.7 0.0
19/01:30am 7.0 1.1 -1.9 53 3.4 WNW 19 30 10 16 1017.7 1017.9 0.0
19/01:00am 7.3 1.4 -2.2 51 3.6 W 19 28 10 15 1018.0 1018.2 0.0
19/12:30am 8.1 0.9 -2.2 48 3.9 W 26 35 14 19 1018.2 1018.3 0.0
19/12:00am 8.6 1.4 -2.1 47 4.1 W 26 35 14 19 1018.3 1018.4 0.0
 
Date/Time
EST
Temp
°C
App
Temp
°C
Dew
Point
°C
Rel
Hum
%
Delta-T
°C
Wind Press
QNH
hPa
Press
MSL
hPa
Rain since
9am
mm
Dir  Spd
km/h
Gust
km/h
Spd
kts
Gust
kts
18/11:30pm 8.7 1.8 -2.3 46 4.2 W 24 35 13 19 1018.4 1018.5 0.0
18/11:00pm 9.3 1.6 -2.6 43 4.6 WSW 28 39 15 21 1018.3 1018.4 0.0
18/10:30pm 8.8 2.3 -2.8 44 4.4 W 22 35 12 19 1018.6 1018.7 0.0
18/10:00pm 8.5 2.5 -2.7 45 4.2 W 19 28 10 15 1018.4 1018.5 0.0
18/09:30pm 9.1 2.5 -3.1 42 4.6 W 22 33 12 18 1018.3 1018.4 0.0
18/09:00pm 9.4 2.9 -2.8 42 4.7 W 22 28 12 15 1018.0 1018.2 0.0
18/08:30pm 10.1 3.1 -3.2 39 5.1 W 24 35 13 19 1017.8 1018.0 0.0
18/08:00pm 10.5 2.8 -3.2 38 5.3 W 28 41 15 22 1017.8 1018.0 0.0
18/07:30pm 10.9 2.7 -3.6 36 5.5 W 30 39 16 21 1017.5 1017.7 0.0
18/07:02pm 11.5 3.3 -3.8 34 5.9 W 30 50 16 27 1017.2 1017.4 0.0
18/07:00pm 11.1 2.9 -3.8 35 5.7 W 30 43 16 23 1017.2 1017.4 0.0
18/06:36pm 11.5 3.3 -3.8 34 5.9 W 30 48 16 26 1016.8 1016.9 0.0
18/06:30pm 11.2 4.2 -3.3 36 5.6 W 24 35 13 19 1016.7 1016.8 0.0
18/06:00pm 11.6 4.6 -3.7 34 5.9 W 24 41 13 22 1016.3 1016.4 0.0
18/05:30pm 11.9 4.1 -3.8 33 6.0 W 28 39 15 21 1015.9 1016.0 0.0
18/05:00pm 13.1 4.6 -3.6 31 6.5 W 32 46 17 25 1015.2 1015.4 0.0
18/04:30pm 13.8 3.9 -3.9 29 6.9 W 39 54 21 29 1014.7 1014.8 0.0
18/04:00pm 14.8 5.7 -3.5 28 7.3 W 35 54 19 29 1014.4 1014.5 0.0
18/03:30pm 15.3 5.3 -4.6 25 7.8 W 39 50 21 27 1014.1 1014.2 0.0
18/03:00pm 15.3 5.1 -3.6 27 7.6 W 41 56 22 30 1014.1 1014.2 0.0
18/02:30pm 15.6 5.8 -2.8 28 7.5 WSW 39 57 21 31 1014.0 1014.1 0.0
18/02:23pm 15.5 6.5 -2.9 28 7.5 W 35 54 19 29 1014.0 1014.1 0.0
18/02:00pm 15.1 5.3 -2.8 29 7.3 WSW 39 50 21 27 1014.0 1014.1 0.0
18/01:30pm 15.9 7.5 -1.2 31 7.3 WSW 33 43 18 23 1014.1 1014.2 0.0
18/01:00pm 15.4 6.2 -1.6 31 7.1 WSW 37 50 20 27 1014.4 1014.5 0.0
18/12:30pm 14.7 6.2 -1.8 32 6.8 W 33 48 18 26 1014.6 1014.7 0.0
18/12:01pm 14.3 5.8 -2.1 32 6.7 W 33 52 18 28 1015.1 1015.3 0.0
18/12:00pm 15.2 7.1 -0.5 34 6.7 W 32 41 17 22 1015.1 1015.3 0.0
18/11:30am 14.7 6.7 0.2 37 6.3 W 32 43 17 23 1015.6 1015.7 0.0
18/11:17am 13.4 5.1 -0.6 38 5.9 W 33 52 18 28 1015.8 1015.9 0.0
18/11:00am 14.4 5.4 -0.1 37 6.2 W 37 48 20 26 1016.0 1016.1 0.0
18/10:44am 14.4 5.3 -0.5 36 6.3 W 37 56 20 30 1016.1 1016.2 0.0
18/10:30am 14.0 5.7 -0.4 37 6.1 W 33 50 18 27 1016.1 1016.2 0.0
18/10:00am 13.4 4.3 -0.3 39 5.8 W 37 52 20 28 1016.4 1016.5 0.0
18/09:46am 12.7 4.4 -0.5 40 5.5 W 33 54 18 29 1016.5 1016.6 0.0
18/09:30am 13.0 5.4 0.7 43 5.3 W 30 43 16 23 1016.5 1016.6 0.0
18/09:00am 12.0 5.6 0.8 46 4.8 W 24 35 13 19 1016.5 1016.6 0.0
18/08:30am 12.6 6.3 1.6 47 4.8 W 24 39 13 21 1016.1 1016.2 0.0
18/08:00am 11.8 5.9 1.7 50 4.4 W 22 30 12 16 1015.8 1015.9 0.0
18/07:30am 8.5 4.0 0.0 55 3.4 NW 13 17 7 9 1015.3 1015.5 0.0
18/07:00am 6.1 1.8 -1.5 58 2.9 NW 11 13 6 7 1014.6 1014.7 0.0
18/06:30am 5.0 0.6 -2.1 60 2.6 N 11 15 6 8 1014.1 1014.2 0.0
18/06:00am 5.2 0.9 -1.7 61 2.6 N 11 13 6 7 1013.9 1014.0 0.0
18/05:30am 5.3 1.0 -1.8 60 2.7 N 11 13 6 7 1013.5 1013.6 0.0
18/05:00am 5.5 1.2 -1.9 59 2.8 N 11 13 6 7 1013.3 1013.4 0.0
18/04:30am 5.5 0.8 -1.9 59 2.8 N 13 15 7 8 1013.0 1013.1 0.0
18/04:00am 5.4 1.1 -1.5 61 2.6 N 11 13 6 7 1012.8 1012.8 0.0
18/03:30am 6.6 2.3 -2.0 54 3.3 N 11 13 6 7 1013.0 1013.1 0.0
18/03:00am 7.0 3.1 -1.7 54 3.3 NNW 9 13 5 7 1013.1 1013.2 0.0
18/02:30am 7.4 3.5 -1.8 52 3.5 N 9 13 5 7 1013.2 1013.3 0.0
18/02:00am 8.1 4.3 -0.6 54 3.5 N 9 11 5 6 1013.3 1013.4 0.0
18/01:30am 8.2 4.9 0.0 56 3.3 N 7 9 4 5 1013.4 1013.5 0.0
18/01:00am 6.7 1.8 -0.7 59 2.9 N 15 17 8 9 1013.6 1013.7 0.0
18/12:30am 7.8 3.6 -0.9 54 3.4 N 11 13 6 7 1013.7 1013.8 0.0
18/12:00am 8.0 4.2 -0.7 54 3.5 N 9 13 5 7 1013.8 1013.9 0.0
 
Date/Time
EST
Temp
°C
App
Temp
°C
Dew
Point
°C
Rel
Hum
%
Delta-T
°C
Wind Press
QNH
hPa
Press
MSL
hPa
Rain since
9am
mm
Dir  Spd
km/h
Gust
km/h
Spd
kts
Gust
kts
17/11:30pm 8.2 4.4 -0.8 53 3.6 NW 9 11 5 6 1013.9 1014.0 0.0
17/11:00pm 7.8 4.4 -0.7 55 3.4 WNW 7 9 4 5 1013.9 1014.0 0.0
17/10:30pm 7.9 4.5 -0.3 56 3.3 WNW 7 9 4 5 1013.9 1014.0 0.0
17/10:00pm 7.7 4.3 -0.3 57 3.2 WNW 7 9 4 5 1014.0 1014.1 0.0
17/09:30pm 8.1 4.8 -0.1 56 3.3 WNW 7 9 4 5 1013.9 1014.0 0.0
17/09:00pm 9.4 5.8 0.3 53 3.8 NW 9 11 5 6 1014.0 1014.1 0.0
17/08:30pm 9.0 4.7 0.7 56 3.4 WNW 13 15 7 8 1014.0 1014.1 0.0
17/08:00pm 8.9 5.0 1.1 58 3.3 NW 11 15 6 8 1013.9 1014.0 0.0

Other Formats:

Comma delimited format used in spreadsheet applications
http://www.bom.gov.au/fwo/IDN60801/IDN60801.95762.axf

JavaScript Object Notation format (JSON) in row-major order
http://www.bom.gov.au/fwo/IDN60801/IDN60801.95762.json